Terminal Aerodrome Forecast
Issued by NWS

Home | Current Version | Previous Version | Text Only | Print | Product List | Glossary On
Versions: 1 2 3 4 5 6 7 8 9 10 11 12 13 14 15 16 17 18 19 20 21 22 23
000
FTUS41 KGYX 310007 AAA
TAFRKD
TAF AMD
KRKD 310007Z 3100/3124 22005KT 3SM BR OVC003
      TEMPO 3100/3104 1/2SM FG OVC001
     FM310400 24004KT 1/2SM FG OVC001
     FM311100 26007KT P6SM SKC
     FM311700 23010KT P6SM SKC
      AMD LTD TO CLD VIS AND WIND=

USA.gov is the U.S. government's official web portal to all federal, state and local government web resources and services.